Aviation Digital Data Service (ADDS)

Output produced by METARs form (2018 UTC 02 August 2015)
found at http://www.aviationweather.gov/adds/metars/
 
METAR text: EPBY 022000Z 13003KT CAVOK 22/09 Q1019
Conditions at: EPBY (BYDGOSZDZ , PL) observed 2000 UTC 02 August 2015
Temperature: 22.0°C (72°F)
Dewpoint: 9.0°C (48°F) [RH = 43%]
Pressure (altimeter): 30.09 inches Hg (1019.0 mb)
Winds: from the SE (130 degrees) at 3 MPH (3 knots; 1.6 m/s)
Visibility: 6 or more miles (10+ km)
Ceiling: ceiling and visibility are OK
Clouds: unknown
Weather: no significant weather observed at this time

Forecast for: EPBY (BYDGOSZDZ , PL)
Text: TAF EPBY 021730Z 0218/0318 16010KT CAVOK
Forecast period: 1800 UTC 02 August 2015 to 0000 UTC 03 August 2015
Forecast type: FROM: standard forecast or significant change
Winds: from the SSE (160 degrees) at 12 MPH (10 knots; 5.2 m/s)
Visibility: 6 or more miles (10+ km)
Clouds: not forecast
Weather: NSW  (no significant weather)
Text: BECMG 0300/0303 VRB05KT
Forecast period: 0000 to 1800 UTC 03 August 2015
Forecast type: BECOMING: Conditions expected to become as follows by 0300 UTC 03 August 2015
Winds: variable direction winds at 6 MPH (5 knots; 2.6 m/s)
Visibility: 6 or more miles (10+ km)
Weather: NSW  (no significant weather)